Time;durP1;ratioP1;P1;durP2;ratioP2;P2;SDS_P1;SDS_P2;PMS_P1;PMS_P2;Temp;Humidity;BMP_temperature;BMP_pressure;BME280_temperature;BME280_humidity;BME280_pressure;Samples;Min_cycle;Max_cycle;Signal;HPM_P1;HPM_P2
2022/08/03 00:02:13;;;;;;;5.50;3.20;;;22.50;62.00;;;;;;4997985;28;20475;-66
2022/08/03 00:04:40;;;;;;;3.90;3.40;;;22.50;62.00;;;;;;4992593;28;20446;-66
2022/08/03 00:07:08;;;;;;;4.53;2.97;;;22.50;62.40;;;;;;5004045;28;20531;-65
2022/08/03 00:09:35;;;;;;;4.30;3.00;;;22.50;62.10;;;;;;4991272;28;20793;-65
2022/08/03 00:12:02;;;;;;;4.40;2.90;;;22.40;62.20;;;;;;4993119;28;20446;-66
2022/08/03 00:14:29;;;;;;;3.60;3.20;;;22.40;62.90;;;;;;4986328;28;20448;-65
2022/08/03 00:16:57;;;;;;;3.47;3.15;;;22.30;62.70;;;;;;4995775;28;20428;-66
2022/08/03 00:19:24;;;;;;;3.75;3.00;;;22.30;63.00;;;;;;4993576;28;20523;-66
2022/08/03 00:21:51;;;;;;;3.50;3.20;;;22.30;63.50;;;;;;4995643;28;20773;-66
2022/08/03 00:24:18;;;;;;;3.30;3.00;;;22.20;63.50;;;;;;4996769;28;20422;-66
2022/08/03 00:26:44;;;;;;;3.50;2.97;;;22.20;64.00;;;;;;4996446;28;20463;-65
2022/08/03 00:29:11;;;;;;;3.20;2.90;;;22.10;64.80;;;;;;4994670;28;20434;-65
2022/08/03 00:31:38;;;;;;;4.10;2.90;;;22.10;65.70;;;;;;4995685;28;20441;-65
2022/08/03 00:34:06;;;;;;;3.40;3.10;;;22.10;65.00;;;;;;4993175;28;20440;-65
2022/08/03 00:36:33;;;;;;;3.30;3.03;;;22.00;65.30;;;;;;4988811;28;20438;-65
2022/08/03 00:39:00;;;;;;;4.57;3.20;;;22.00;65.50;;;;;;4996330;28;20906;-65
2022/08/03 00:41:27;;;;;;;3.40;3.10;;;21.90;65.50;;;;;;4984817;28;20884;-65
2022/08/03 00:43:53;;;;;;;3.55;3.00;;;21.90;65.60;;;;;;4990243;28;20436;-65
2022/08/03 00:46:21;;;;;;;3.50;3.20;;;21.90;65.50;;;;;;5001925;28;21018;-66
2022/08/03 00:48:48;;;;;;;3.40;2.80;;;21.80;65.20;;;;;;4996573;28;20807;-66
2022/08/03 00:51:16;;;;;;;3.20;2.90;;;21.80;65.20;;;;;;4990952;28;20919;-65
2022/08/03 00:53:44;;;;;;;3.88;3.30;;;21.80;65.00;;;;;;4996979;28;20443;-66
2022/08/03 00:56:15;;;;;;;3.63;2.75;;;21.80;65.10;;;;;;4986000;28;20438;-66
2022/08/03 00:58:44;;;;;;;3.85;2.95;;;21.80;65.50;;;;;;4983968;28;20972;-66
2022/08/03 01:01:11;;;;;;;3.20;2.90;;;21.70;65.40;;;;;;4994608;28;20442;-67
2022/08/03 01:03:38;;;;;;;3.78;2.90;;;21.70;65.70;;;;;;4993735;28;20846;-67
2022/08/03 01:06:18;;;;;;;3.20;2.90;;;21.70;65.80;;;;;;4986076;28;20461;-66
2022/08/03 01:08:50;;;;;;;3.67;2.90;;;21.70;66.20;;;;;;4988212;28;20489;-67
2022/08/03 01:11:32;;;;;;;3.45;2.95;;;21.60;66.00;;;;;;4993857;28;20448;-66
2022/08/03 01:14:06;;;;;;;3.40;3.10;;;21.60;66.40;;;;;;4984583;28;20504;-66
2022/08/03 01:16:39;;;;;;;3.22;2.92;;;21.60;66.50;;;;;;4993255;28;20444;-66
2022/08/03 01:19:24;;;;;;;3.13;2.88;;;21.50;66.60;;;;;;4991053;28;20425;-66
2022/08/03 01:22:05;;;;;;;3.80;3.08;;;21.50;66.90;;;;;;4989074;28;20430;-66
2022/08/03 01:24:44;;;;;;;5.13;3.33;;;21.40;67.30;;;;;;4994966;28;20438;-67
2022/08/03 01:27:17;;;;;;;3.22;2.92;;;21.40;67.90;;;;;;4993372;28;20488;-67
2022/08/03 01:30:04;;;;;;;3.10;2.90;;;21.40;68.30;;;;;;4994969;28;20445;-66
2022/08/03 01:32:39;;;;;;;3.50;3.30;;;21.30;68.70;;;;;;4997650;28;20417;-66
2022/08/03 01:35:10;;;;;;;3.42;3.13;;;21.30;68.90;;;;;;4985818;28;20430;-67
2022/08/03 01:37:42;;;;;;;3.55;3.25;;;21.30;68.90;;;;;;4984016;28;20486;-66
2022/08/03 01:40:12;;;;;;;5.70;3.67;;;21.30;69.30;;;;;;4987090;28;20466;-66
2022/08/03 01:42:40;;;;;;;4.50;3.30;;;21.30;69.40;;;;;;4994314;28;20437;-66
2022/08/03 01:45:12;;;;;;;3.72;3.15;;;21.30;69.60;;;;;;4987516;28;20790;-66
2022/08/03 01:47:40;;;;;;;4.78;3.00;;;21.20;69.50;;;;;;4985635;28;20441;-66
2022/08/03 01:50:09;;;;;;;3.67;3.10;;;21.20;69.80;;;;;;4985260;28;21070;-67
2022/08/03 01:52:40;;;;;;;3.47;3.17;;;21.10;69.70;;;;;;4992264;28;20434;-66
2022/08/03 01:55:09;;;;;;;3.50;3.20;;;21.10;70.20;;;;;;4987410;28;20432;-66
2022/08/03 01:57:38;;;;;;;3.90;3.60;;;21.00;70.50;;;;;;4994370;28;20505;-66
2022/08/03 02:00:08;;;;;;;3.50;3.20;;;21.00;70.80;;;;;;4994789;28;20456;-66
2022/08/03 02:02:37;;;;;;;3.47;3.17;;;21.00;70.60;;;;;;4984751;28;20449;-67
2022/08/03 02:05:08;;;;;;;3.60;3.30;;;20.90;70.60;;;;;;5002190;28;20436;-66
2022/08/03 02:07:37;;;;;;;3.70;3.40;;;20.90;70.40;;;;;;5002890;28;20443;-66
2022/08/03 02:10:07;;;;;;;4.38;3.50;;;20.90;70.70;;;;;;4998926;28;20438;-66
2022/08/03 02:12:36;;;;;;;3.67;3.38;;;20.90;70.70;;;;;;4992476;28;20436;-65
2022/08/03 02:15:03;;;;;;;4.10;3.50;;;20.80;70.70;;;;;;4992313;28;20806;-66
2022/08/03 02:17:32;;;;;;;3.50;3.20;;;20.90;70.70;;;;;;4989167;28;20426;-66
2022/08/03 02:20:03;;;;;;;3.75;3.45;;;20.80;70.30;;;;;;4983963;28;20457;-66
2022/08/03 02:22:30;;;;;;;3.75;3.45;;;20.80;70.30;;;;;;4993103;28;20436;-66
2022/08/03 02:24:57;;;;;;;4.00;3.60;;;20.70;70.60;;;;;;4987300;28;20511;-66
2022/08/03 02:30:05;;;;;;;3.80;3.50;;;20.70;71.00;;;;;;5014680;28;20468;-73
2022/08/03 02:32:36;;;;;;;4.45;3.97;;;20.70;71.20;;;;;;5016805;28;20442;-74
2022/08/03 02:35:09;;;;;;;4.10;3.80;;;20.60;71.40;;;;;;5011300;28;20434;-74
2022/08/03 02:37:41;;;;;;;3.80;3.50;;;20.50;71.40;;;;;;5019818;28;20746;-74
2022/08/03 02:40:11;;;;;;;4.47;3.90;;;20.50;71.60;;;;;;5019782;28;20544;-75
2022/08/03 02:42:40;;;;;;;3.83;3.45;;;20.50;72.10;;;;;;5019095;28;20474;-74
2022/08/03 02:45:11;;;;;;;4.00;3.50;;;20.40;71.80;;;;;;5016406;28;20439;-74
2022/08/03 02:47:40;;;;;;;4.13;3.47;;;20.40;72.00;;;;;;5011350;28;20434;-74
2022/08/03 02:50:10;;;;;;;4.10;3.70;;;20.40;72.20;;;;;;5036295;28;20772;-74
2022/08/03 02:52:39;;;;;;;4.20;3.80;;;20.30;72.20;;;;;;5030289;28;20451;-74
2022/08/03 02:55:10;;;;;;;3.90;3.60;;;20.30;72.50;;;;;;5022457;28;20450;-74
2022/08/03 02:57:38;;;;;;;3.72;3.53;;;20.30;72.80;;;;;;5030532;28;20965;-74
2022/08/03 03:00:08;;;;;;;3.77;3.43;;;20.30;72.80;;;;;;5012426;28;20434;-75
2022/08/03 03:02:36;;;;;;;3.60;3.30;;;20.20;73.40;;;;;;5014539;28;20512;-76
2022/08/03 03:05:04;;;;;;;4.07;3.63;;;20.20;73.20;;;;;;5028045;28;20432;-73
2022/08/03 03:07:33;;;;;;;5.28;3.70;;;20.20;73.10;;;;;;5025803;28;20551;-74
2022/08/03 03:10:01;;;;;;;3.97;3.53;;;20.20;73.10;;;;;;5024926;28;20429;-73
2022/08/03 03:12:29;;;;;;;3.90;3.50;;;20.20;73.30;;;;;;5029746;28;20438;-73
2022/08/03 03:14:56;;;;;;;3.70;3.40;;;20.10;73.30;;;;;;5012950;28;20902;-73
2022/08/03 03:17:23;;;;;;;3.80;3.50;;;20.10;73.30;;;;;;5028043;28;20431;-74
2022/08/03 03:19:51;;;;;;;3.70;3.40;;;20.10;73.50;;;;;;5023980;28;20433;-72
2022/08/03 03:22:19;;;;;;;3.80;3.33;;;20.10;73.40;;;;;;5034763;28;20435;-74
2022/08/03 03:24:48;;;;;;;4.00;3.70;;;20.00;73.40;;;;;;5012149;28;20455;-73
2022/08/03 03:27:15;;;;;;;3.70;3.40;;;20.10;73.40;;;;;;5011679;28;20445;-75
2022/08/03 03:29:42;;;;;;;4.80;3.92;;;20.00;73.30;;;;;;5022310;28;20455;-74
2022/08/03 03:32:09;;;;;;;3.70;3.40;;;20.00;73.40;;;;;;5017061;28;20746;-75
2022/08/03 03:34:37;;;;;;;5.17;4.10;;;20.00;73.40;;;;;;5012506;28;20927;-75
2022/08/03 03:37:04;;;;;;;3.90;3.50;;;20.00;73.70;;;;;;5020263;28;20438;-75
2022/08/03 03:39:31;;;;;;;4.10;3.80;;;20.00;73.60;;;;;;5021241;28;20808;-75
2022/08/03 03:42:00;;;;;;;4.00;3.70;;;20.00;73.50;;;;;;5019986;28;20424;-74
2022/08/03 03:44:28;;;;;;;3.75;3.45;;;20.00;73.50;;;;;;5020936;28;20435;-75
2022/08/03 03:46:55;;;;;;;3.80;3.50;;;19.90;73.60;;;;;;5033916;28;20937;-74
2022/08/03 03:49:22;;;;;;;3.92;3.60;;;19.90;73.80;;;;;;5013880;28;20442;-75
2022/08/03 03:51:52;;;;;;;3.80;3.40;;;19.90;73.90;;;;;;5022410;28;20446;-75
2022/08/03 03:54:18;;;;;;;3.88;3.58;;;19.90;74.00;;;;;;5023984;28;20810;-73
2022/08/03 03:56:45;;;;;;;3.33;3.10;;;19.80;74.00;;;;;;5013666;28;20431;-73
2022/08/03 03:59:13;;;;;;;4.13;3.70;;;19.80;74.20;;;;;;5028004;28;20780;-73
2022/08/03 04:01:40;;;;;;;4.05;3.75;;;19.80;73.90;;;;;;5012791;28;20432;-76
2022/08/03 04:12:22;;;;;;;3.50;3.20;;;19.80;72.70;;;;;;5013129;28;20477;-73
2022/08/03 04:14:52;;;;;;;3.97;3.67;;;19.80;72.80;;;;;;5010591;28;20955;-74
2022/08/03 04:17:20;;;;;;;4.47;4.05;;;19.80;72.90;;;;;;5011199;28;20798;-73
2022/08/03 04:19:50;;;;;;;3.22;3.03;;;19.80;73.20;;;;;;5025452;28;20432;-74
2022/08/03 04:22:20;;;;;;;4.00;3.60;;;19.80;73.60;;;;;;5022841;28;20809;-73
2022/08/03 04:24:50;;;;;;;4.40;4.00;;;19.80;73.60;;;;;;5009348;28;20820;-71
2022/08/03 04:27:21;;;;;;;4.30;4.00;;;19.80;73.80;;;;;;5021383;28;20499;-71
2022/08/03 04:29:52;;;;;;;4.20;3.80;;;19.80;73.70;;;;;;5017619;28;20444;-71
2022/08/03 04:32:24;;;;;;;4.53;4.13;;;19.80;73.60;;;;;;5007835;28;20470;-71
2022/08/03 04:34:51;;;;;;;4.10;3.50;;;19.80;73.60;;;;;;5025827;28;20526;-71
2022/08/03 04:37:25;;;;;;;4.00;3.70;;;19.80;73.50;;;;;;5019215;28;20832;-71
2022/08/03 04:39:54;;;;;;;4.60;4.20;;;19.80;73.70;;;;;;5024494;28;20443;-72
2022/08/03 04:42:22;;;;;;;4.30;4.00;;;19.70;73.60;;;;;;5010915;28;20455;-71
2022/08/03 04:44:49;;;;;;;4.10;3.80;;;19.70;73.90;;;;;;5022995;28;20440;-70
2022/08/03 04:47:17;;;;;;;4.45;4.05;;;19.80;73.90;;;;;;5014166;28;20508;-72
2022/08/03 04:49:45;;;;;;;5.68;3.90;;;19.70;73.80;;;;;;5025563;28;20440;-70
2022/08/03 04:52:11;;;;;;;4.70;4.30;;;19.70;73.80;;;;;;5025383;28;20787;-72
2022/08/03 04:54:42;;;;;;;4.60;4.20;;;19.70;73.70;;;;;;5030452;28;20496;-72
2022/08/03 04:57:10;;;;;;;4.20;3.90;;;19.70;73.90;;;;;;5019085;28;20931;-71
2022/08/03 04:59:37;;;;;;;4.38;4.07;;;19.70;74.00;;;;;;5017784;28;20933;-72
2022/08/03 05:02:04;;;;;;;4.33;3.90;;;19.70;73.90;;;;;;5011790;28;20888;-73
2022/08/03 05:04:32;;;;;;;4.40;4.00;;;19.70;73.70;;;;;;5018550;28;20429;-70
2022/08/03 05:06:59;;;;;;;4.10;3.80;;;19.70;73.60;;;;;;5014786;28;20529;-70
2022/08/03 05:09:26;;;;;;;4.07;3.78;;;19.70;73.30;;;;;;5022531;28;20518;-71
2022/08/03 05:11:52;;;;;;;4.10;3.80;;;19.70;73.30;;;;;;5015838;28;20441;-71
2022/08/03 05:14:19;;;;;;;5.43;4.47;;;19.80;73.00;;;;;;5023686;28;20992;-71
2022/08/03 05:16:46;;;;;;;4.35;4.00;;;19.80;73.10;;;;;;5030330;28;20438;-71
2022/08/03 05:19:12;;;;;;;5.05;3.95;;;19.80;73.00;;;;;;5026760;28;20542;-71
2022/08/03 05:21:41;;;;;;;4.00;3.70;;;19.80;73.00;;;;;;5011197;28;20891;-70
2022/08/03 05:24:07;;;;;;;4.45;4.05;;;19.80;72.90;;;;;;5011154;28;20443;-71
2022/08/03 05:26:34;;;;;;;4.80;4.40;;;19.80;72.70;;;;;;5014069;28;20437;-69
2022/08/03 05:29:01;;;;;;;4.50;4.10;;;19.90;72.60;;;;;;5009947;28;20700;-77
2022/08/03 05:31:28;;;;;;;4.65;4.25;;;19.80;73.00;;;;;;5020440;28;20916;-77
2022/08/03 05:33:56;;;;;;;5.27;4.10;;;19.90;73.50;;;;;;5030472;28;20852;-77
2022/08/03 05:36:23;;;;;;;4.80;4.40;;;19.90;73.40;;;;;;5019852;28;20424;-76
2022/08/03 05:38:51;;;;;;;4.50;4.10;;;20.00;73.30;;;;;;5016735;28;20448;-77
2022/08/03 05:41:18;;;;;;;4.72;4.32;;;20.00;73.50;;;;;;5012469;28;20419;-77
2022/08/03 05:43:44;;;;;;;4.90;4.40;;;20.00;73.30;;;;;;5028918;28;20419;-76
2022/08/03 05:46:11;;;;;;;4.68;4.28;;;20.10;73.20;;;;;;5005437;28;20428;-76
2022/08/03 05:48:38;;;;;;;5.05;4.30;;;20.20;73.00;;;;;;5004932;28;20444;-77
2022/08/03 05:51:09;;;;;;;4.60;4.20;;;20.20;72.20;;;;;;5015841;28;20427;-77
2022/08/03 05:53:37;;;;;;;4.70;4.20;;;20.20;72.30;;;;;;5009006;28;20455;-77
2022/08/03 05:56:05;;;;;;;5.15;4.65;;;20.20;72.10;;;;;;5018201;28;20439;-77
2022/08/03 05:58:32;;;;;;;4.60;4.30;;;20.20;72.30;;;;;;5022408;28;20828;-77
2022/08/03 06:00:59;;;;;;;4.60;4.20;;;20.30;72.20;;;;;;5018242;28;20429;-77
2022/08/03 06:03:26;;;;;;;4.53;4.13;;;20.30;72.10;;;;;;5022109;28;20967;-77
2022/08/03 06:05:54;;;;;;;3.90;3.65;;;20.40;71.80;;;;;;5020658;28;20449;-77
2022/08/03 06:08:21;;;;;;;4.50;4.20;;;20.40;71.40;;;;;;5016861;28;20433;-77
2022/08/03 06:10:48;;;;;;;4.70;4.20;;;20.50;71.40;;;;;;5008952;28;20439;-77
2022/08/03 06:13:16;;;;;;;6.22;4.32;;;20.50;70.80;;;;;;5019609;28;20905;-76
2022/08/03 06:15:43;;;;;;;5.20;4.00;;;20.60;70.60;;;;;;5015386;28;20435;-76
2022/08/03 06:18:09;;;;;;;4.57;4.18;;;20.60;70.30;;;;;;5027443;28;20549;-76
2022/08/03 06:20:36;;;;;;;4.82;4.18;;;20.70;69.90;;;;;;5017870;28;20887;-76
2022/08/03 06:23:03;;;;;;;4.53;4.10;;;20.70;70.10;;;;;;5018780;28;20459;-76
2022/08/03 06:25:30;;;;;;;5.50;4.10;;;20.80;69.60;;;;;;5018581;28;20530;-71
2022/08/03 06:27:58;;;;;;;6.60;3.80;;;20.90;69.00;;;;;;5023762;28;20567;-73
2022/08/03 06:30:26;;;;;;;5.70;4.00;;;20.90;68.80;;;;;;5019357;28;20447;-73
2022/08/03 06:32:53;;;;;;;4.65;4.25;;;21.00;68.90;;;;;;5021238;28;20432;-75
2022/08/03 06:35:20;;;;;;;7.47;4.70;;;21.10;68.40;;;;;;5017725;28;20886;-75
2022/08/03 06:37:48;;;;;;;4.20;3.80;;;21.20;67.50;;;;;;5012129;28;21239;-73
2022/08/03 06:40:17;;;;;;;4.75;3.92;;;21.30;68.00;;;;;;5015741;28;20516;-72
2022/08/03 06:42:45;;;;;;;4.97;3.65;;;21.40;67.80;;;;;;5024319;28;20443;-72
2022/08/03 06:45:12;;;;;;;6.82;4.30;;;21.50;66.90;;;;;;5019933;28;20432;-73
2022/08/03 06:47:40;;;;;;;4.55;4.05;;;21.60;66.10;;;;;;5025378;28;20432;-72
2022/08/03 06:50:09;;;;;;;4.40;4.00;;;21.70;66.00;;;;;;5022998;28;20804;-72
2022/08/03 06:52:36;;;;;;;5.20;4.10;;;21.80;65.70;;;;;;5017560;28;20602;-71
2022/08/03 06:55:03;;;;;;;5.47;4.00;;;21.90;66.00;;;;;;5020802;28;20833;-71
2022/08/03 06:57:30;;;;;;;5.53;3.70;;;22.00;64.40;;;;;;5012741;28;20443;-72
2022/08/03 07:00:01;;;;;;;3.80;3.50;;;22.10;64.40;;;;;;5026254;28;20531;-72
2022/08/03 07:02:28;;;;;;;4.32;3.92;;;22.20;64.00;;;;;;5026232;28;20453;-71
2022/08/03 07:04:57;;;;;;;4.40;4.00;;;22.30;63.60;;;;;;5036697;28;20419;-72
2022/08/03 07:07:23;;;;;;;3.40;3.15;;;22.40;63.40;;;;;;5003103;28;20905;-72
2022/08/03 07:09:50;;;;;;;3.87;3.50;;;22.60;63.40;;;;;;5020618;28;20515;-72
2022/08/03 07:12:17;;;;;;;5.90;3.90;;;22.80;63.20;;;;;;5034278;28;20421;-71
2022/08/03 07:14:44;;;;;;;4.90;3.50;;;22.90;61.70;;;;;;5025823;28;20837;-74
2022/08/03 07:17:11;;;;;;;5.25;3.63;;;23.10;61.10;;;;;;5019090;28;20921;-74
2022/08/03 07:19:37;;;;;;;3.88;3.55;;;23.30;60.50;;;;;;5030798;28;20447;-74
2022/08/03 07:22:07;;;;;;;4.10;3.50;;;23.50;59.90;;;;;;5030254;28;20437;-74
2022/08/03 07:24:34;;;;;;;4.88;3.50;;;23.60;59.20;;;;;;5024059;28;20988;-73
2022/08/03 07:27:01;;;;;;;3.60;3.30;;;23.80;58.70;;;;;;5012486;28;20423;-73
2022/08/03 07:29:28;;;;;;;3.58;3.28;;;23.90;58.10;;;;;;5014563;28;20428;-74
2022/08/03 07:31:55;;;;;;;3.53;2.80;;;24.00;57.20;;;;;;5021553;28;20455;-73
2022/08/03 07:34:22;;;;;;;4.43;3.20;;;24.20;57.20;;;;;;5023280;28;20899;-74
2022/08/03 07:36:48;;;;;;;5.37;3.20;;;24.30;56.40;;;;;;5034314;28;20441;-75
2022/08/03 07:39:17;;;;;;;3.67;3.15;;;24.40;55.90;;;;;;5037130;28;20418;-74
2022/08/03 07:41:43;;;;;;;4.00;2.90;;;24.60;55.90;;;;;;5006655;28;20956;-75
2022/08/03 07:44:10;;;;;;;3.42;3.13;;;24.80;55.50;;;;;;5008493;28;20409;-74
2022/08/03 07:46:37;;;;;;;4.57;3.00;;;25.00;54.50;;;;;;5007697;28;20536;-77
2022/08/03 07:49:04;;;;;;;3.58;2.80;;;25.10;54.20;;;;;;5006720;28;20926;-77
2022/08/03 07:51:31;;;;;;;4.40;2.70;;;25.30;54.10;;;;;;5024184;28;20508;-75
2022/08/03 07:53:59;;;;;;;4.88;3.10;;;25.50;53.00;;;;;;5019037;28;20767;-77
2022/08/03 07:56:28;;;;;;;4.70;2.75;;;25.80;52.50;;;;;;5007018;28;20442;-77
2022/08/03 07:58:55;;;;;;;3.03;2.63;;;25.90;52.00;;;;;;5007934;28;20427;-76
2022/08/03 08:01:22;;;;;;;3.03;2.70;;;26.10;51.50;;;;;;5016368;28;20430;-72
2022/08/03 08:03:50;;;;;;;5.07;2.55;;;26.20;50.90;;;;;;5011759;28;20432;-75
2022/08/03 08:06:18;;;;;;;4.43;2.80;;;26.40;50.70;;;;;;5008449;28;20708;-74
2022/08/03 08:08:44;;;;;;;2.83;2.50;;;26.60;49.80;;;;;;5034148;28;20921;-75
2022/08/03 08:11:11;;;;;;;3.50;2.50;;;26.80;49.80;;;;;;5030421;28;20516;-74
2022/08/03 08:13:39;;;;;;;4.35;2.70;;;27.10;48.80;;;;;;5018893;28;20437;-70
2022/08/03 08:16:06;;;;;;;3.28;2.30;;;27.30;48.20;;;;;;5023686;28;20476;-77
2022/08/03 08:18:33;;;;;;;3.20;2.50;;;27.40;48.00;;;;;;5023425;28;20429;-78
2022/08/03 08:21:02;;;;;;;3.90;2.67;;;27.60;47.20;;;;;;5023292;28;20420;-77
2022/08/03 08:23:29;;;;;;;2.92;2.20;;;27.80;47.10;;;;;;5021675;28;20516;-76
2022/08/03 08:25:56;;;;;;;3.60;2.35;;;28.00;46.90;;;;;;5026334;28;20749;-77
2022/08/03 08:28:23;;;;;;;2.55;2.30;;;28.20;46.50;;;;;;5007093;28;20425;-77
2022/08/03 08:30:51;;;;;;;2.40;2.20;;;28.20;45.90;;;;;;5029082;23;20448;-71
2022/08/03 08:33:18;;;;;;;2.50;2.30;;;28.40;46.40;;;;;;5019808;28;20412;-71
2022/08/03 08:35:45;;;;;;;3.23;2.37;;;28.50;45.00;;;;;;5008721;28;20420;-73
2022/08/03 08:38:12;;;;;;;3.22;2.30;;;28.80;44.60;;;;;;5016604;28;20767;-71
2022/08/03 08:40:38;;;;;;;2.70;2.50;;;28.90;43.90;;;;;;5009255;28;20419;-70
2022/08/03 08:43:05;;;;;;;2.28;2.10;;;29.10;43.20;;;;;;4999044;28;20442;-70
2022/08/03 08:45:33;;;;;;;3.50;2.20;;;29.20;43.70;;;;;;5018568;28;20431;-70
2022/08/03 08:48:03;;;;;;;2.70;2.20;;;29.40;42.50;;;;;;4995951;28;20426;-72
2022/08/03 08:50:30;;;;;;;3.20;2.47;;;29.60;42.10;;;;;;4997584;28;20440;-70
2022/08/03 08:53:01;;;;;;;3.50;2.40;;;29.70;42.50;;;;;;5011847;28;20500;-71
2022/08/03 08:55:29;;;;;;;2.30;2.10;;;29.80;42.10;;;;;;5013819;28;20435;-70
2022/08/03 08:58:00;;;;;;;6.10;3.00;;;30.00;41.80;;;;;;4990987;28;20426;-70
2022/08/03 09:00:26;;;;;;;3.03;2.40;;;30.10;41.50;;;;;;4994603;28;20426;-70
2022/08/03 09:02:53;;;;;;;2.60;2.40;;;30.30;40.90;;;;;;4996300;28;20989;-72
2022/08/03 09:05:21;;;;;;;3.50;2.50;;;30.50;40.00;;;;;;4989260;28;20414;-71
2022/08/03 09:07:48;;;;;;;3.45;2.28;;;30.70;39.80;;;;;;5004538;28;20434;-69
2022/08/03 09:10:18;;;;;;;2.30;2.10;;;30.90;39.20;;;;;;5001056;28;20688;-69
2022/08/03 09:12:46;;;;;;;2.73;2.27;;;30.90;38.50;;;;;;4997507;28;20443;-70
2022/08/03 09:15:18;;;;;;;4.22;2.13;;;30.90;39.70;;;;;;5010966;28;20831;-70
2022/08/03 09:17:45;;;;;;;2.60;2.17;;;31.10;38.50;;;;;;4989410;28;20426;-70
2022/08/03 09:20:12;;;;;;;2.72;2.10;;;31.40;38.30;;;;;;4988423;28;20510;-70
2022/08/03 09:22:52;;;;;;;9.60;2.70;;;31.60;38.30;;;;;;5005770;28;20449;-70
2022/08/03 09:25:19;;;;;;;3.70;2.20;;;31.80;37.40;;;;;;5007935;28;20795;-70
2022/08/03 09:27:46;;;;;;;4.65;2.00;;;31.90;36.60;;;;;;5008786;28;20425;-69
2022/08/03 09:30:15;;;;;;;4.20;2.00;;;32.10;36.50;;;;;;4998130;28;20445;-69
2022/08/03 09:32:43;;;;;;;3.10;1.90;;;32.10;36.00;;;;;;4989535;28;20429;-69
2022/08/03 09:35:11;;;;;;;3.10;1.80;;;32.20;36.40;;;;;;4988989;28;20774;-69
2022/08/03 09:37:37;;;;;;;3.20;1.40;;;32.50;34.90;;;;;;5001916;28;20440;-69
2022/08/03 09:40:07;;;;;;;3.58;1.60;;;32.70;35.00;;;;;;5008329;28;20438;-69
2022/08/03 09:42:37;;;;;;;2.95;1.80;;;32.80;34.00;;;;;;4997966;28;20472;-69
2022/08/03 09:45:04;;;;;;;3.30;1.80;;;32.70;33.50;;;;;;4989955;28;20431;-69
2022/08/03 09:47:32;;;;;;;3.10;1.80;;;32.40;34.50;;;;;;4989667;28;20426;-69
2022/08/03 09:50:01;;;;;;;1.90;1.60;;;32.50;34.20;;;;;;4987845;28;20517;-69
2022/08/03 09:52:32;;;;;;;2.67;1.50;;;32.60;33.90;;;;;;5001023;28;20494;-69
2022/08/03 09:55:01;;;;;;;2.53;1.40;;;32.60;34.00;;;;;;4999786;28;20440;-69
2022/08/03 09:57:30;;;;;;;3.03;1.50;;;32.70;33.10;;;;;;5016898;28;20457;-69
2022/08/03 10:00:10;;;;;;;2.08;1.50;;;33.00;33.10;;;;;;4988443;28;20467;-69
2022/08/03 10:02:38;;;;;;;3.72;2.10;;;33.10;33.50;;;;;;4988676;28;20446;-69
2022/08/03 10:05:06;;;;;;;1.73;1.38;;;33.30;33.80;;;;;;4988269;28;20430;-69
2022/08/03 10:07:43;;;;;;;5.80;2.05;;;33.30;32.20;;;;;;5008347;28;20444;-69
2022/08/03 10:10:10;;;;;;;5.40;1.60;;;33.40;32.40;;;;;;4999416;28;21055;-69
2022/08/03 10:12:40;;;;;;;1.65;1.20;;;33.60;32.20;;;;;;4999339;28;20429;-69
2022/08/03 10:15:08;;;;;;;2.10;1.40;;;33.80;31.80;;;;;;4999296;28;20429;-70
2022/08/03 10:17:35;;;;;;;1.40;0.90;;;34.10;32.20;;;;;;4988767;28;20430;-70
2022/08/03 10:20:02;;;;;;;2.95;1.15;;;34.30;30.40;;;;;;4987555;28;20488;-71
2022/08/03 10:22:33;;;;;;;1.63;0.95;;;34.50;30.00;;;;;;5014090;28;20828;-71
2022/08/03 10:25:04;;;;;;;1.50;0.85;;;34.60;29.40;;;;;;5002234;28;20423;-70
2022/08/03 10:27:34;;;;;;;1.80;0.90;;;34.70;29.30;;;;;;4987150;28;20422;-71
2022/08/03 10:30:05;;;;;;;1.92;1.00;;;34.80;29.20;;;;;;4987483;28;20426;-71
2022/08/03 10:32:48;;;;;;;2.28;0.90;;;34.80;29.30;;;;;;4991681;28;20947;-71
2022/08/03 10:35:19;;;;;;;2.17;1.00;;;34.90;29.10;;;;;;4998890;28;20431;-72
2022/08/03 10:37:52;;;;;;;2.20;1.10;;;34.90;29.60;;;;;;5009116;28;20938;-69
2022/08/03 10:40:23;;;;;;;2.17;0.80;;;35.00;29.40;;;;;;5002458;28;20913;-71
2022/08/03 10:42:54;;;;;;;1.50;0.80;;;35.10;28.70;;;;;;5006633;28;20928;-69
2022/08/03 10:45:25;;;;;;;1.90;1.00;;;34.80;29.00;;;;;;4997392;28;20433;-70
2022/08/03 10:47:54;;;;;;;2.15;1.13;;;34.50;29.50;;;;;;4992210;28;20418;-70
2022/08/03 10:50:24;;;;;;;2.10;1.30;;;34.50;29.50;;;;;;4994074;28;20448;-69
2022/08/03 10:52:55;;;;;;;1.48;1.30;;;34.40;29.00;;;;;;5008262;28;20448;-69
2022/08/03 10:58:48;;;;;;;2.05;1.50;;;33.90;30.20;;;;;;5010187;28;20414;-69
2022/08/03 11:01:17;;;;;;;1.60;1.50;;;33.80;30.00;;;;;;5013900;28;20449;-75
2022/08/03 11:04:15;;;;;;;2.20;1.27;;;33.60;30.50;;;;;;4991712;28;20908;-76
2022/08/03 11:06:43;;;;;;;2.20;1.10;;;33.90;30.00;;;;;;5003013;28;20440;-75
2022/08/03 11:09:19;;;;;;;1.40;1.20;;;34.00;29.90;;;;;;5006389;28;20426;-75
2022/08/03 11:11:48;;;;;;;1.25;1.15;;;34.20;29.70;;;;;;4994190;28;20507;-75
2022/08/03 11:14:17;;;;;;;3.60;1.17;;;34.30;29.40;;;;;;5012723;28;20447;-76
2022/08/03 11:16:48;;;;;;;2.30;1.20;;;34.50;29.70;;;;;;5009587;28;20425;-76
2022/08/03 11:19:18;;;;;;;1.70;1.23;;;34.80;29.70;;;;;;4996867;28;20869;-76
2022/08/03 11:22:06;;;;;;;3.08;0.90;;;35.10;29.70;;;;;;5009026;28;20435;-76
2022/08/03 11:25:00;;;;;;;2.30;1.17;;;35.50;29.20;;;;;;4999910;28;20433;-76
2022/08/03 11:27:29;;;;;;;2.10;1.30;;;36.00;28.70;;;;;;5014033;28;20528;-76
2022/08/03 11:30:02;;;;;;;2.33;0.85;;;36.10;28.10;;;;;;4996101;28;20740;-76
2022/08/03 11:32:52;;;;;;;2.10;1.30;;;36.20;28.00;;;;;;4994900;28;20430;-76
2022/08/03 11:35:21;;;;;;;1.30;1.00;;;36.40;27.70;;;;;;4998516;28;20418;-76
2022/08/03 11:38:06;;;;;;;1.57;0.90;;;36.50;27.60;;;;;;5003409;28;20795;-76
2022/08/03 11:40:35;;;;;;;2.15;1.10;;;36.70;27.50;;;;;;4995260;28;20430;-76
2022/08/03 11:43:02;;;;;;;1.55;1.10;;;36.70;26.70;;;;;;4996986;28;20443;-77
2022/08/03 11:45:30;;;;;;;1.55;1.20;;;36.70;27.10;;;;;;5001128;28;20507;-77
2022/08/03 11:48:02;;;;;;;1.30;1.20;;;36.60;27.00;;;;;;5001571;28;20426;-77
2022/08/03 11:50:37;;;;;;;3.70;1.30;;;36.60;27.10;;;;;;4994357;28;20588;-77
2022/08/03 11:53:05;;;;;;;2.03;1.00;;;36.70;26.90;;;;;;5010839;28;20418;-77
2022/08/03 11:55:32;;;;;;;1.50;0.90;;;36.80;27.30;;;;;;4999892;28;20923;-77
2022/08/03 11:57:59;;;;;;;1.65;0.90;;;37.10;27.20;;;;;;4999967;28;20435;-77
2022/08/03 12:00:29;;;;;;;2.47;1.20;;;37.10;26.50;;;;;;5020013;28;20522;-78
2022/08/03 12:03:08;;;;;;;1.70;1.10;;;37.00;26.70;;;;;;4993789;28;20423;-78
2022/08/03 12:05:40;;;;;;;2.33;1.10;;;37.30;26.00;;;;;;4993785;28;20445;-77
2022/08/03 12:08:08;;;;;;;2.28;1.20;;;37.50;26.00;;;;;;5011269;28;20943;-77
2022/08/03 12:10:36;;;;;;;1.92;1.02;;;36.90;26.20;;;;;;5004098;28;20414;-77
2022/08/03 12:13:07;;;;;;;2.80;1.20;;;36.70;27.10;;;;;;5002196;28;20414;-77
2022/08/03 12:15:35;;;;;;;3.00;1.38;;;36.90;27.30;;;;;;5010504;28;20441;-78
2022/08/03 12:18:03;;;;;;;5.13;1.42;;;37.30;27.40;;;;;;4993038;28;20422;-77
2022/08/03 12:20:32;;;;;;;2.88;1.20;;;37.60;26.90;;;;;;4994515;28;20442;-77
2022/08/03 12:23:04;;;;;;;2.47;1.40;;;38.00;26.30;;;;;;5012441;28;20421;-78
2022/08/03 12:25:31;;;;;;;2.00;1.10;;;38.20;26.00;;;;;;5003524;28;20477;-78
2022/08/03 12:28:16;;;;;;;2.65;1.20;;;38.40;25.70;;;;;;4992454;28;20426;-78
2022/08/03 12:30:43;;;;;;;2.70;1.30;;;38.40;26.20;;;;;;4992622;28;20422;-77
2022/08/03 12:33:14;;;;;;;1.90;1.10;;;38.40;26.00;;;;;;4990858;28;20419;-77
2022/08/03 12:35:43;;;;;;;2.00;1.50;;;38.40;26.00;;;;;;5002842;28;20436;-76
2022/08/03 12:38:11;;;;;;;2.78;1.30;;;38.40;25.50;;;;;;5011979;28;20426;-77
2022/08/03 12:40:38;;;;;;;3.20;1.20;;;38.30;25.50;;;;;;4989948;28;20426;-76
2022/08/03 12:43:12;;;;;;;1.77;1.10;;;38.10;25.00;;;;;;5002909;28;20439;-76
2022/08/03 12:45:39;;;;;;;2.42;1.33;;;37.90;25.50;;;;;;5014416;28;20435;-76
2022/08/03 12:48:10;;;;;;;3.28;0.93;;;37.90;25.80;;;;;;5003744;28;20426;-76
2022/08/03 12:50:38;;;;;;;3.22;1.00;;;37.60;25.90;;;;;;5005934;28;20431;-75
2022/08/03 12:53:08;;;;;;;2.50;0.90;;;37.30;26.20;;;;;;4992123;28;20451;-76
2022/08/03 12:55:36;;;;;;;2.85;1.20;;;37.10;26.50;;;;;;4990006;28;20539;-76
2022/08/03 12:58:03;;;;;;;2.75;1.10;;;37.00;26.90;;;;;;5005196;28;20437;-76
2022/08/03 13:00:30;;;;;;;2.53;1.25;;;36.80;26.90;;;;;;4997998;28;20426;-76
2022/08/03 13:03:02;;;;;;;2.08;1.20;;;36.90;27.10;;;;;;4990068;28;20510;-76
2022/08/03 13:05:30;;;;;;;3.05;1.00;;;37.10;26.10;;;;;;4992841;28;20447;-76
2022/08/03 13:07:57;;;;;;;3.08;1.02;;;37.20;25.90;;;;;;5013907;28;20913;-76
2022/08/03 13:10:33;;;;;;;2.70;1.20;;;37.50;26.70;;;;;;4993398;28;20952;-76
2022/08/03 13:13:02;;;;;;;3.72;1.10;;;37.70;26.00;;;;;;4989225;28;20431;-76